Clarkton, North Carolina
Current Conditions -  °F | °C
As of 12:35 PM on Monday 24 Nov 2014 (Local Time) from KEYF Reporting Station
Drizzle Drizzle  
Wind Chill: 21°   Ceiling: 4800
Heat Index: 21°   Visibility: 7mi
Dew Point: 21°   Wind: 9mph
Humidity: 100%   Direction: 180°S
Pressure: 29.83"   Gusts: NA
Location:  34.49°N, 78.66°W
Report Text: KEYF 241735Z AUTO 18008KT 7SM -DZ SCT005 SCT041 OVC048 21/21 A2983 RMK AO2 T02100210
Loading
Personal Weather Stations






























Interactive Weather Map New forecast layout! Learn more

10-Day Weather Forecast

Advertisements
Track Severe Weather on mobile